sensor_id;sensor_type;location;lat;lon;timestamp;P1;durP1;ratioP1;P2;durP2;ratioP2
24799;SDS011;12897;50.812;4.430;2023-06-19T00:01:34;8.13;;;5.12;;
24799;SDS011;12897;50.812;4.430;2023-06-19T00:04:03;7.47;;;4.80;;
24799;SDS011;12897;50.812;4.430;2023-06-19T00:06:31;7.17;;;4.65;;
24799;SDS011;12897;50.812;4.430;2023-06-19T00:08:58;9.75;;;5.28;;
24799;SDS011;12897;50.812;4.430;2023-06-19T00:11:26;6.50;;;4.25;;
24799;SDS011;12897;50.812;4.430;2023-06-19T00:13:54;10.68;;;5.30;;
24799;SDS011;12897;50.812;4.430;2023-06-19T00:16:21;7.83;;;5.00;;
24799;SDS011;12897;50.812;4.430;2023-06-19T00:18:51;8.75;;;5.25;;
24799;SDS011;12897;50.812;4.430;2023-06-19T00:23:50;5.65;;;4.20;;
24799;SDS011;12897;50.812;4.430;2023-06-19T00:26:21;7.15;;;4.45;;
24799;SDS011;12897;50.812;4.430;2023-06-19T00:28:49;7.70;;;4.40;;
24799;SDS011;12897;50.812;4.430;2023-06-19T00:31:17;7.15;;;4.60;;
24799;SDS011;12897;50.812;4.430;2023-06-19T00:33:45;6.70;;;4.05;;
24799;SDS011;12897;50.812;4.430;2023-06-19T00:36:18;18.35;;;6.10;;
24799;SDS011;12897;50.812;4.430;2023-06-19T00:38:47;8.53;;;4.60;;
24799;SDS011;12897;50.812;4.430;2023-06-19T00:41:22;7.47;;;4.08;;
24799;SDS011;12897;50.812;4.430;2023-06-19T00:43:57;7.42;;;4.33;;
24799;SDS011;12897;50.812;4.430;2023-06-19T00:46:25;7.70;;;4.40;;
24799;SDS011;12897;50.812;4.430;2023-06-19T00:48:58;7.37;;;4.45;;
24799;SDS011;12897;50.812;4.430;2023-06-19T00:51:26;9.18;;;4.72;;
24799;SDS011;12897;50.812;4.430;2023-06-19T00:53:53;5.65;;;4.00;;
24799;SDS011;12897;50.812;4.430;2023-06-19T00:56:21;5.83;;;3.70;;
24799;SDS011;12897;50.812;4.430;2023-06-19T00:58:49;7.55;;;3.60;;
24799;SDS011;12897;50.812;4.430;2023-06-19T01:01:18;6.62;;;4.50;;
24799;SDS011;12897;50.812;4.430;2023-06-19T01:03:49;7.28;;;4.17;;
24799;SDS011;12897;50.812;4.430;2023-06-19T01:06:17;9.78;;;4.47;;
24799;SDS011;12897;50.812;4.430;2023-06-19T01:11:42;10.75;;;4.37;;
24799;SDS011;12897;50.812;4.430;2023-06-19T01:14:14;4.83;;;4.00;;
24799;SDS011;12897;50.812;4.430;2023-06-19T01:16:45;6.35;;;4.12;;
24799;SDS011;12897;50.812;4.430;2023-06-19T01:19:16;8.58;;;4.65;;
24799;SDS011;12897;50.812;4.430;2023-06-19T01:21:48;5.67;;;4.05;;
24799;SDS011;12897;50.812;4.430;2023-06-19T01:24:16;7.95;;;4.17;;
24799;SDS011;12897;50.812;4.430;2023-06-19T01:26:44;12.13;;;4.47;;
24799;SDS011;12897;50.812;4.430;2023-06-19T01:29:13;6.72;;;4.45;;
24799;SDS011;12897;50.812;4.430;2023-06-19T01:34:29;6.70;;;4.35;;
24799;SDS011;12897;50.812;4.430;2023-06-19T01:36:59;10.30;;;4.67;;
24799;SDS011;12897;50.812;4.430;2023-06-19T01:39:27;8.53;;;4.00;;
24799;SDS011;12897;50.812;4.430;2023-06-19T01:41:56;8.08;;;4.15;;
24799;SDS011;12897;50.812;4.430;2023-06-19T01:44:24;7.53;;;4.15;;
24799;SDS011;12897;50.812;4.430;2023-06-19T01:46:58;9.20;;;4.72;;
24799;SDS011;12897;50.812;4.430;2023-06-19T01:49:27;5.75;;;3.87;;
24799;SDS011;12897;50.812;4.430;2023-06-19T01:51:54;11.20;;;4.40;;
24799;SDS011;12897;50.812;4.430;2023-06-19T01:54:25;12.05;;;5.03;;
24799;SDS011;12897;50.812;4.430;2023-06-19T01:56:52;8.60;;;5.00;;
24799;SDS011;12897;50.812;4.430;2023-06-19T01:59:19;11.43;;;5.25;;
24799;SDS011;12897;50.812;4.430;2023-06-19T02:01:53;13.58;;;5.17;;
24799;SDS011;12897;50.812;4.430;2023-06-19T02:04:29;10.35;;;5.33;;
24799;SDS011;12897;50.812;4.430;2023-06-19T02:09:33;11.48;;;5.05;;
24799;SDS011;12897;50.812;4.430;2023-06-19T02:12:01;7.92;;;4.62;;
24799;SDS011;12897;50.812;4.430;2023-06-19T02:14:28;7.10;;;4.53;;
24799;SDS011;12897;50.812;4.430;2023-06-19T02:16:57;9.48;;;4.75;;
24799;SDS011;12897;50.812;4.430;2023-06-19T02:19:25;11.03;;;5.30;;
24799;SDS011;12897;50.812;4.430;2023-06-19T02:21:52;8.73;;;4.92;;
24799;SDS011;12897;50.812;4.430;2023-06-19T02:24:26;8.23;;;5.03;;
24799;SDS011;12897;50.812;4.430;2023-06-19T02:26:53;16.80;;;5.62;;
24799;SDS011;12897;50.812;4.430;2023-06-19T02:29:21;7.10;;;4.65;;
24799;SDS011;12897;50.812;4.430;2023-06-19T02:31:49;12.80;;;5.25;;
24799;SDS011;12897;50.812;4.430;2023-06-19T02:34:19;11.12;;;4.97;;
24799;SDS011;12897;50.812;4.430;2023-06-19T02:36:49;8.10;;;5.00;;
24799;SDS011;12897;50.812;4.430;2023-06-19T02:39:16;8.70;;;4.97;;
24799;SDS011;12897;50.812;4.430;2023-06-19T02:41:48;9.95;;;5.47;;
24799;SDS011;12897;50.812;4.430;2023-06-19T02:44:16;9.43;;;5.85;;
24799;SDS011;12897;50.812;4.430;2023-06-19T02:46:44;11.60;;;5.90;;
24799;SDS011;12897;50.812;4.430;2023-06-19T02:49:11;11.80;;;6.60;;
24799;SDS011;12897;50.812;4.430;2023-06-19T02:51:39;9.75;;;6.58;;
24799;SDS011;12897;50.812;4.430;2023-06-19T02:54:06;10.23;;;6.55;;
24799;SDS011;12897;50.812;4.430;2023-06-19T02:56:34;8.20;;;6.20;;
24799;SDS011;12897;50.812;4.430;2023-06-19T02:59:01;11.15;;;6.58;;
24799;SDS011;12897;50.812;4.430;2023-06-19T03:01:36;13.28;;;7.37;;
24799;SDS011;12897;50.812;4.430;2023-06-19T03:04:11;10.35;;;6.78;;
24799;SDS011;12897;50.812;4.430;2023-06-19T03:06:48;9.53;;;7.03;;
24799;SDS011;12897;50.812;4.430;2023-06-19T03:09:22;11.55;;;6.65;;
24799;SDS011;12897;50.812;4.430;2023-06-19T03:12:00;12.30;;;7.72;;
24799;SDS011;12897;50.812;4.430;2023-06-19T03:17:13;12.47;;;7.67;;
24799;SDS011;12897;50.812;4.430;2023-06-19T03:19:43;11.65;;;8.00;;
24799;SDS011;12897;50.812;4.430;2023-06-19T03:22:11;16.82;;;8.83;;
24799;SDS011;12897;50.812;4.430;2023-06-19T03:24:38;14.33;;;9.00;;
24799;SDS011;12897;50.812;4.430;2023-06-19T03:27:06;15.20;;;9.85;;
24799;SDS011;12897;50.812;4.430;2023-06-19T03:29:34;13.80;;;9.58;;
24799;SDS011;12897;50.812;4.430;2023-06-19T03:32:01;13.00;;;9.38;;
24799;SDS011;12897;50.812;4.430;2023-06-19T03:34:29;13.93;;;9.85;;
24799;SDS011;12897;50.812;4.430;2023-06-19T03:36:57;15.63;;;8.95;;
24799;SDS011;12897;50.812;4.430;2023-06-19T03:39:24;13.45;;;9.05;;
24799;SDS011;12897;50.812;4.430;2023-06-19T03:41:52;14.15;;;9.70;;
24799;SDS011;12897;50.812;4.430;2023-06-19T03:44:19;16.23;;;10.78;;
24799;SDS011;12897;50.812;4.430;2023-06-19T03:46:48;17.80;;;11.40;;
24799;SDS011;12897;50.812;4.430;2023-06-19T03:51:44;20.97;;;12.03;;
24799;SDS011;12897;50.812;4.430;2023-06-19T03:54:11;17.32;;;12.58;;
24799;SDS011;12897;50.812;4.430;2023-06-19T03:56:43;19.73;;;12.15;;
24799;SDS011;12897;50.812;4.430;2023-06-19T03:59:11;19.85;;;13.18;;
24799;SDS011;12897;50.812;4.430;2023-06-19T04:01:39;18.57;;;12.30;;
24799;SDS011;12897;50.812;4.430;2023-06-19T04:04:08;17.90;;;12.07;;
24799;SDS011;12897;50.812;4.430;2023-06-19T04:06:36;19.00;;;12.07;;
24799;SDS011;12897;50.812;4.430;2023-06-19T04:09:03;18.67;;;11.08;;
24799;SDS011;12897;50.812;4.430;2023-06-19T04:11:32;18.02;;;11.83;;
24799;SDS011;12897;50.812;4.430;2023-06-19T04:14:02;14.03;;;9.75;;
24799;SDS011;12897;50.812;4.430;2023-06-19T04:16:29;21.55;;;11.75;;
24799;SDS011;12897;50.812;4.430;2023-06-19T04:18:57;21.65;;;11.12;;
24799;SDS011;12897;50.812;4.430;2023-06-19T04:21:25;14.60;;;11.35;;
24799;SDS011;12897;50.812;4.430;2023-06-19T04:23:54;18.25;;;11.40;;
24799;SDS011;12897;50.812;4.430;2023-06-19T04:26:22;16.73;;;12.10;;
24799;SDS011;12897;50.812;4.430;2023-06-19T04:28:51;18.60;;;12.00;;
24799;SDS011;12897;50.812;4.430;2023-06-19T04:31:20;18.95;;;12.80;;
24799;SDS011;12897;50.812;4.430;2023-06-19T04:33:49;16.70;;;11.70;;
24799;SDS011;12897;50.812;4.430;2023-06-19T04:36:17;23.85;;;13.75;;
24799;SDS011;12897;50.812;4.430;2023-06-19T04:38:48;18.62;;;11.93;;
24799;SDS011;12897;50.812;4.430;2023-06-19T04:41:18;19.35;;;13.88;;
24799;SDS011;12897;50.812;4.430;2023-06-19T04:43:46;21.82;;;13.08;;
24799;SDS011;12897;50.812;4.430;2023-06-19T04:46:14;21.90;;;13.65;;
24799;SDS011;12897;50.812;4.430;2023-06-19T04:48:45;19.05;;;12.73;;
24799;SDS011;12897;50.812;4.430;2023-06-19T04:51:14;20.25;;;12.53;;
24799;SDS011;12897;50.812;4.430;2023-06-19T04:53:47;25.30;;;14.60;;
24799;SDS011;12897;50.812;4.430;2023-06-19T04:56:16;20.17;;;13.15;;
24799;SDS011;12897;50.812;4.430;2023-06-19T04:58:44;21.85;;;12.78;;
24799;SDS011;12897;50.812;4.430;2023-06-19T05:01:15;17.50;;;12.70;;
24799;SDS011;12897;50.812;4.430;2023-06-19T05:03:48;21.62;;;12.10;;
24799;SDS011;12897;50.812;4.430;2023-06-19T05:06:16;18.45;;;11.10;;
24799;SDS011;12897;50.812;4.430;2023-06-19T05:08:44;19.25;;;11.33;;
24799;SDS011;12897;50.812;4.430;2023-06-19T05:11:16;18.65;;;10.35;;
24799;SDS011;12897;50.812;4.430;2023-06-19T05:13:41;16.70;;;11.35;;
24799;SDS011;12897;50.812;4.430;2023-06-19T05:16:09;18.27;;;10.20;;
24799;SDS011;12897;50.812;4.430;2023-06-19T05:18:41;17.57;;;10.00;;
24799;SDS011;12897;50.812;4.430;2023-06-19T05:21:09;16.65;;;10.13;;
24799;SDS011;12897;50.812;4.430;2023-06-19T05:23:37;17.32;;;9.70;;
24799;SDS011;12897;50.812;4.430;2023-06-19T05:26:07;12.10;;;9.70;;
24799;SDS011;12897;50.812;4.430;2023-06-19T05:28:34;13.15;;;9.30;;
24799;SDS011;12897;50.812;4.430;2023-06-19T05:31:02;19.02;;;11.08;;
24799;SDS011;12897;50.812;4.430;2023-06-19T05:33:32;19.65;;;11.57;;
24799;SDS011;12897;50.812;4.430;2023-06-19T05:35:59;16.97;;;10.25;;
24799;SDS011;12897;50.812;4.430;2023-06-19T05:38:28;21.25;;;10.43;;
24799;SDS011;12897;50.812;4.430;2023-06-19T05:40:58;17.90;;;10.88;;
24799;SDS011;12897;50.812;4.430;2023-06-19T05:43:26;17.40;;;10.63;;
24799;SDS011;12897;50.812;4.430;2023-06-19T05:45:58;16.42;;;9.55;;
24799;SDS011;12897;50.812;4.430;2023-06-19T05:48:24;17.20;;;10.18;;
24799;SDS011;12897;50.812;4.430;2023-06-19T05:50:54;18.55;;;10.10;;
24799;SDS011;12897;50.812;4.430;2023-06-19T05:53:23;15.28;;;10.45;;
24799;SDS011;12897;50.812;4.430;2023-06-19T05:55:51;13.20;;;10.20;;
24799;SDS011;12897;50.812;4.430;2023-06-19T05:58:18;20.30;;;10.55;;
24799;SDS011;12897;50.812;4.430;2023-06-19T06:00:47;16.48;;;11.70;;
24799;SDS011;12897;50.812;4.430;2023-06-19T06:03:15;19.52;;;12.20;;
24799;SDS011;12897;50.812;4.430;2023-06-19T06:05:45;19.45;;;10.35;;
24799;SDS011;12897;50.812;4.430;2023-06-19T06:10:44;16.25;;;10.38;;
24799;SDS011;12897;50.812;4.430;2023-06-19T06:13:18;18.30;;;11.35;;
24799;SDS011;12897;50.812;4.430;2023-06-19T06:15:46;14.33;;;11.25;;
24799;SDS011;12897;50.812;4.430;2023-06-19T06:18:15;19.32;;;11.90;;
24799;SDS011;12897;50.812;4.430;2023-06-19T06:20:43;22.55;;;12.10;;
24799;SDS011;12897;50.812;4.430;2023-06-19T06:23:11;20.65;;;11.88;;
24799;SDS011;12897;50.812;4.430;2023-06-19T06:25:41;18.87;;;11.95;;
24799;SDS011;12897;50.812;4.430;2023-06-19T06:28:10;24.72;;;15.55;;
24799;SDS011;12897;50.812;4.430;2023-06-19T06:30:40;20.02;;;14.95;;
24799;SDS011;12897;50.812;4.430;2023-06-19T06:33:09;31.48;;;21.93;;
24799;SDS011;12897;50.812;4.430;2023-06-19T06:35:38;21.60;;;16.10;;
24799;SDS011;12897;50.812;4.430;2023-06-19T06:38:05;23.45;;;15.28;;
24799;SDS011;12897;50.812;4.430;2023-06-19T06:40:33;23.60;;;16.05;;
24799;SDS011;12897;50.812;4.430;2023-06-19T06:43:01;21.10;;;14.98;;
24799;SDS011;12897;50.812;4.430;2023-06-19T06:45:34;23.52;;;14.10;;
24799;SDS011;12897;50.812;4.430;2023-06-19T06:48:04;22.55;;;14.98;;
24799;SDS011;12897;50.812;4.430;2023-06-19T06:50:32;22.05;;;15.38;;
24799;SDS011;12897;50.812;4.430;2023-06-19T06:53:00;25.37;;;14.83;;
24799;SDS011;12897;50.812;4.430;2023-06-19T06:55:30;22.98;;;14.18;;
24799;SDS011;12897;50.812;4.430;2023-06-19T06:58:00;18.98;;;13.30;;
24799;SDS011;12897;50.812;4.430;2023-06-19T07:00:30;19.67;;;12.58;;
24799;SDS011;12897;50.812;4.430;2023-06-19T07:03:05;19.55;;;12.53;;
24799;SDS011;12897;50.812;4.430;2023-06-19T07:05:33;14.98;;;11.18;;
24799;SDS011;12897;50.812;4.430;2023-06-19T07:08:02;20.43;;;12.03;;
24799;SDS011;12897;50.812;4.430;2023-06-19T07:10:32;19.02;;;12.23;;
24799;SDS011;12897;50.812;4.430;2023-06-19T07:12:59;22.77;;;12.00;;
24799;SDS011;12897;50.812;4.430;2023-06-19T07:15:27;19.75;;;12.53;;
24799;SDS011;12897;50.812;4.430;2023-06-19T07:17:55;21.57;;;12.25;;
24799;SDS011;12897;50.812;4.430;2023-06-19T07:20:23;20.37;;;11.80;;
24799;SDS011;12897;50.812;4.430;2023-06-19T07:22:51;17.20;;;11.65;;
24799;SDS011;12897;50.812;4.430;2023-06-19T07:25:22;17.07;;;10.72;;
24799;SDS011;12897;50.812;4.430;2023-06-19T07:27:51;18.40;;;11.45;;
24799;SDS011;12897;50.812;4.430;2023-06-19T07:30:18;17.85;;;11.10;;
24799;SDS011;12897;50.812;4.430;2023-06-19T07:32:46;19.77;;;11.63;;
24799;SDS011;12897;50.812;4.430;2023-06-19T07:35:14;15.30;;;11.33;;
24799;SDS011;12897;50.812;4.430;2023-06-19T07:37:44;16.87;;;10.40;;
24799;SDS011;12897;50.812;4.430;2023-06-19T07:40:14;16.23;;;10.58;;
24799;SDS011;12897;50.812;4.430;2023-06-19T07:42:42;15.68;;;10.05;;
24799;SDS011;12897;50.812;4.430;2023-06-19T07:45:10;18.10;;;10.13;;
24799;SDS011;12897;50.812;4.430;2023-06-19T07:47:39;14.20;;;10.53;;
24799;SDS011;12897;50.812;4.430;2023-06-19T07:50:12;16.65;;;10.23;;
24799;SDS011;12897;50.812;4.430;2023-06-19T07:52:36;19.82;;;10.38;;
24799;SDS011;12897;50.812;4.430;2023-06-19T07:55:07;15.88;;;9.73;;
24799;SDS011;12897;50.812;4.430;2023-06-19T07:57:36;21.33;;;11.05;;
24799;SDS011;12897;50.812;4.430;2023-06-19T08:00:13;15.43;;;9.93;;
24799;SDS011;12897;50.812;4.430;2023-06-19T08:02:42;16.82;;;9.93;;
24799;SDS011;12897;50.812;4.430;2023-06-19T08:05:09;20.93;;;10.63;;
24799;SDS011;12897;50.812;4.430;2023-06-19T08:07:37;20.32;;;10.20;;
24799;SDS011;12897;50.812;4.430;2023-06-19T08:10:05;16.25;;;9.85;;
24799;SDS011;12897;50.812;4.430;2023-06-19T08:12:33;18.70;;;10.08;;
24799;SDS011;12897;50.812;4.430;2023-06-19T08:15:03;19.10;;;10.72;;
24799;SDS011;12897;50.812;4.430;2023-06-19T08:17:33;13.98;;;9.33;;
24799;SDS011;12897;50.812;4.430;2023-06-19T08:20:01;16.57;;;9.53;;
24799;SDS011;12897;50.812;4.430;2023-06-19T08:22:30;18.35;;;10.82;;
24799;SDS011;12897;50.812;4.430;2023-06-19T08:25:03;19.77;;;10.32;;
24799;SDS011;12897;50.812;4.430;2023-06-19T08:27:32;14.90;;;9.63;;
24799;SDS011;12897;50.812;4.430;2023-06-19T08:30:00;17.77;;;9.38;;
24799;SDS011;12897;50.812;4.430;2023-06-19T08:32:28;15.65;;;9.45;;
24799;SDS011;12897;50.812;4.430;2023-06-19T08:34:56;13.88;;;9.28;;
24799;SDS011;12897;50.812;4.430;2023-06-19T08:37:24;15.20;;;9.08;;
24799;SDS011;12897;50.812;4.430;2023-06-19T08:39:51;14.83;;;9.13;;
24799;SDS011;12897;50.812;4.430;2023-06-19T08:42:20;17.60;;;8.68;;
24799;SDS011;12897;50.812;4.430;2023-06-19T08:44:53;15.30;;;9.15;;
24799;SDS011;12897;50.812;4.430;2023-06-19T08:47:20;13.88;;;8.58;;
24799;SDS011;12897;50.812;4.430;2023-06-19T08:49:48;15.93;;;9.55;;
24799;SDS011;12897;50.812;4.430;2023-06-19T08:52:18;15.10;;;11.38;;
24799;SDS011;12897;50.812;4.430;2023-06-19T08:54:45;12.37;;;8.45;;
24799;SDS011;12897;50.812;4.430;2023-06-19T08:57:16;18.70;;;10.48;;
24799;SDS011;12897;50.812;4.430;2023-06-19T08:59:53;15.10;;;9.93;;
24799;SDS011;12897;50.812;4.430;2023-06-19T09:02:46;19.70;;;10.68;;
24799;SDS011;12897;50.812;4.430;2023-06-19T09:05:12;14.20;;;9.60;;
24799;SDS011;12897;50.812;4.430;2023-06-19T09:07:53;19.30;;;9.53;;
24799;SDS011;12897;50.812;4.430;2023-06-19T09:10:26;17.37;;;10.25;;
24799;SDS011;12897;50.812;4.430;2023-06-19T09:12:57;18.45;;;9.85;;
24799;SDS011;12897;50.812;4.430;2023-06-19T09:15:31;25.32;;;9.70;;
24799;SDS011;12897;50.812;4.430;2023-06-19T09:18:09;13.70;;;9.43;;
24799;SDS011;12897;50.812;4.430;2023-06-19T09:20:41;17.87;;;10.87;;
24799;SDS011;12897;50.812;4.430;2023-06-19T09:23:14;19.35;;;9.95;;
24799;SDS011;12897;50.812;4.430;2023-06-19T09:25:47;15.55;;;10.38;;
24799;SDS011;12897;50.812;4.430;2023-06-19T09:28:28;23.77;;;11.60;;
24799;SDS011;12897;50.812;4.430;2023-06-19T09:30:52;16.85;;;10.18;;
24799;SDS011;12897;50.812;4.430;2023-06-19T09:33:37;16.20;;;10.05;;
24799;SDS011;12897;50.812;4.430;2023-06-19T09:38:43;16.62;;;9.90;;
24799;SDS011;12897;50.812;4.430;2023-06-19T09:43:54;19.67;;;10.13;;
24799;SDS011;12897;50.812;4.430;2023-06-19T09:46:24;17.52;;;9.88;;
24799;SDS011;12897;50.812;4.430;2023-06-19T09:48:54;15.78;;;9.15;;
24799;SDS011;12897;50.812;4.430;2023-06-19T09:51:30;16.52;;;9.08;;
24799;SDS011;12897;50.812;4.430;2023-06-19T09:54:00;23.57;;;9.13;;
24799;SDS011;12897;50.812;4.430;2023-06-19T09:56:30;14.47;;;9.23;;
24799;SDS011;12897;50.812;4.430;2023-06-19T09:58:57;16.27;;;8.58;;
24799;SDS011;12897;50.812;4.430;2023-06-19T10:01:28;15.05;;;8.45;;
24799;SDS011;12897;50.812;4.430;2023-06-19T10:04:02;16.40;;;9.08;;
24799;SDS011;12897;50.812;4.430;2023-06-19T10:06:30;14.13;;;8.63;;
24799;SDS011;12897;50.812;4.430;2023-06-19T10:09:07;13.00;;;8.13;;
24799;SDS011;12897;50.812;4.430;2023-06-19T10:11:44;13.90;;;9.00;;
24799;SDS011;12897;50.812;4.430;2023-06-19T10:14:18;15.60;;;10.10;;
24799;SDS011;12897;50.812;4.430;2023-06-19T10:16:50;20.27;;;9.53;;
24799;SDS011;12897;50.812;4.430;2023-06-19T10:19:21;17.48;;;10.20;;
24799;SDS011;12897;50.812;4.430;2023-06-19T10:21:52;18.35;;;10.68;;
24799;SDS011;12897;50.812;4.430;2023-06-19T10:24:22;21.02;;;10.85;;
24799;SDS011;12897;50.812;4.430;2023-06-19T10:27:02;17.90;;;10.75;;
24799;SDS011;12897;50.812;4.430;2023-06-19T10:29:40;18.67;;;10.23;;
24799;SDS011;12897;50.812;4.430;2023-06-19T10:32:08;17.32;;;10.25;;
24799;SDS011;12897;50.812;4.430;2023-06-19T10:34:35;18.35;;;9.78;;
24799;SDS011;12897;50.812;4.430;2023-06-19T10:37:05;20.37;;;10.40;;
24799;SDS011;12897;50.812;4.430;2023-06-19T10:39:33;21.65;;;11.25;;
24799;SDS011;12897;50.812;4.430;2023-06-19T10:42:00;20.82;;;11.12;;
24799;SDS011;12897;50.812;4.430;2023-06-19T10:44:31;18.40;;;10.68;;
24799;SDS011;12897;50.812;4.430;2023-06-19T10:46:58;15.53;;;9.40;;
24799;SDS011;12897;50.812;4.430;2023-06-19T10:49:27;21.17;;;10.55;;
24799;SDS011;12897;50.812;4.430;2023-06-19T10:51:54;18.92;;;9.48;;
24799;SDS011;12897;50.812;4.430;2023-06-19T10:54:24;15.88;;;9.53;;
24799;SDS011;12897;50.812;4.430;2023-06-19T10:56:52;26.60;;;11.73;;
24799;SDS011;12897;50.812;4.430;2023-06-19T10:59:23;21.17;;;11.95;;
24799;SDS011;12897;50.812;4.430;2023-06-19T11:01:51;26.60;;;12.18;;
24799;SDS011;12897;50.812;4.430;2023-06-19T11:07:05;20.97;;;10.35;;
24799;SDS011;12897;50.812;4.430;2023-06-19T11:09:39;17.35;;;9.00;;
24799;SDS011;12897;50.812;4.430;2023-06-19T11:12:11;16.37;;;9.55;;
24799;SDS011;12897;50.812;4.430;2023-06-19T11:14:38;20.75;;;11.55;;
24799;SDS011;12897;50.812;4.430;2023-06-19T11:17:10;19.85;;;10.40;;
24799;SDS011;12897;50.812;4.430;2023-06-19T11:19:38;17.80;;;9.68;;
24799;SDS011;12897;50.812;4.430;2023-06-19T11:22:07;19.80;;;8.98;;
24799;SDS011;12897;50.812;4.430;2023-06-19T11:24:42;15.32;;;8.10;;
24799;SDS011;12897;50.812;4.430;2023-06-19T11:27:07;16.75;;;7.97;;
24799;SDS011;12897;50.812;4.430;2023-06-19T11:29:37;15.40;;;8.85;;
24799;SDS011;12897;50.812;4.430;2023-06-19T11:32:15;14.98;;;8.20;;
24799;SDS011;12897;50.812;4.430;2023-06-19T11:34:45;16.48;;;7.08;;
24799;SDS011;12897;50.812;4.430;2023-06-19T11:37:14;13.43;;;7.00;;
24799;SDS011;12897;50.812;4.430;2023-06-19T11:39:47;10.30;;;6.53;;
24799;SDS011;12897;50.812;4.430;2023-06-19T11:42:16;13.90;;;7.83;;
24799;SDS011;12897;50.812;4.430;2023-06-19T11:44:54;11.38;;;6.65;;
24799;SDS011;12897;50.812;4.430;2023-06-19T11:47:29;12.28;;;7.20;;
24799;SDS011;12897;50.812;4.430;2023-06-19T11:49:54;14.65;;;6.92;;
24799;SDS011;12897;50.812;4.430;2023-06-19T11:52:21;15.23;;;7.15;;
24799;SDS011;12897;50.812;4.430;2023-06-19T11:54:49;10.80;;;6.78;;
24799;SDS011;12897;50.812;4.430;2023-06-19T11:57:18;11.43;;;6.80;;
24799;SDS011;12897;50.812;4.430;2023-06-19T11:59:49;11.88;;;6.37;;
24799;SDS011;12897;50.812;4.430;2023-06-19T12:02:16;11.18;;;6.72;;
24799;SDS011;12897;50.812;4.430;2023-06-19T12:04:45;11.53;;;6.30;;
24799;SDS011;12897;50.812;4.430;2023-06-19T12:07:14;10.93;;;6.67;;
24799;SDS011;12897;50.812;4.430;2023-06-19T12:09:42;12.07;;;6.83;;
24799;SDS011;12897;50.812;4.430;2023-06-19T12:14:38;13.20;;;6.70;;
24799;SDS011;12897;50.812;4.430;2023-06-19T12:17:06;9.05;;;6.53;;
24799;SDS011;12897;50.812;4.430;2023-06-19T12:19:39;11.15;;;6.95;;
24799;SDS011;12897;50.812;4.430;2023-06-19T12:27:30;8.90;;;6.45;;
24799;SDS011;12897;50.812;4.430;2023-06-19T12:30:04;13.20;;;6.80;;
24799;SDS011;12897;50.812;4.430;2023-06-19T12:32:39;10.90;;;6.20;;
24799;SDS011;12897;50.812;4.430;2023-06-19T12:35:19;11.75;;;6.97;;
24799;SDS011;12897;50.812;4.430;2023-06-19T12:37:50;12.30;;;6.47;;
24799;SDS011;12897;50.812;4.430;2023-06-19T12:40:21;10.82;;;6.47;;
24799;SDS011;12897;50.812;4.430;2023-06-19T12:42:49;9.83;;;6.83;;
24799;SDS011;12897;50.812;4.430;2023-06-19T12:45:16;11.30;;;6.33;;
24799;SDS011;12897;50.812;4.430;2023-06-19T12:47:44;12.03;;;6.58;;
24799;SDS011;12897;50.812;4.430;2023-06-19T12:50:18;11.00;;;6.60;;
24799;SDS011;12897;50.812;4.430;2023-06-19T12:52:43;11.88;;;6.72;;
24799;SDS011;12897;50.812;4.430;2023-06-19T12:55:11;9.35;;;6.20;;
24799;SDS011;12897;50.812;4.430;2023-06-19T12:57:41;10.55;;;6.67;;
24799;SDS011;12897;50.812;4.430;2023-06-19T13:00:11;16.50;;;6.62;;
24799;SDS011;12897;50.812;4.430;2023-06-19T13:02:39;13.13;;;5.78;;
24799;SDS011;12897;50.812;4.430;2023-06-19T13:07:36;9.98;;;5.92;;
24799;SDS011;12897;50.812;4.430;2023-06-19T13:10:05;9.30;;;6.05;;
24799;SDS011;12897;50.812;4.430;2023-06-19T13:12:33;13.15;;;5.75;;
24799;SDS011;12897;50.812;4.430;2023-06-19T13:15:01;9.88;;;6.25;;
24799;SDS011;12897;50.812;4.430;2023-06-19T13:19:58;11.25;;;6.50;;
24799;SDS011;12897;50.812;4.430;2023-06-19T13:22:26;9.48;;;6.30;;
24799;SDS011;12897;50.812;4.430;2023-06-19T13:24:56;13.65;;;6.45;;
24799;SDS011;12897;50.812;4.430;2023-06-19T13:27:27;12.13;;;6.60;;
24799;SDS011;12897;50.812;4.430;2023-06-19T13:30:04;8.63;;;6.30;;
24799;SDS011;12897;50.812;4.430;2023-06-19T13:32:41;6.78;;;5.03;;
24799;SDS011;12897;50.812;4.430;2023-06-19T13:35:12;7.15;;;5.30;;
24799;SDS011;12897;50.812;4.430;2023-06-19T13:37:40;8.20;;;6.08;;
24799;SDS011;12897;50.812;4.430;2023-06-19T13:40:09;10.78;;;5.83;;
24799;SDS011;12897;50.812;4.430;2023-06-19T13:42:41;9.95;;;6.20;;
24799;SDS011;12897;50.812;4.430;2023-06-19T13:45:23;8.25;;;4.97;;
24799;SDS011;12897;50.812;4.430;2023-06-19T13:47:54;11.08;;;5.97;;
24799;SDS011;12897;50.812;4.430;2023-06-19T13:50:33;9.10;;;5.85;;
24799;SDS011;12897;50.812;4.430;2023-06-19T13:53:08;8.53;;;5.70;;
24799;SDS011;12897;50.812;4.430;2023-06-19T13:58:19;9.98;;;5.72;;
24799;SDS011;12897;50.812;4.430;2023-06-19T14:00:57;13.65;;;5.95;;
24799;SDS011;12897;50.812;4.430;2023-06-19T14:03:26;7.97;;;5.37;;
24799;SDS011;12897;50.812;4.430;2023-06-19T14:05:54;10.18;;;5.60;;
24799;SDS011;12897;50.812;4.430;2023-06-19T14:08:22;11.12;;;5.65;;
24799;SDS011;12897;50.812;4.430;2023-06-19T14:10:56;9.75;;;5.20;;
24799;SDS011;12897;50.812;4.430;2023-06-19T14:13:23;9.75;;;5.62;;
24799;SDS011;12897;50.812;4.430;2023-06-19T14:15:57;8.13;;;5.78;;
24799;SDS011;12897;50.812;4.430;2023-06-19T14:18:26;10.08;;;5.58;;
24799;SDS011;12897;50.812;4.430;2023-06-19T14:20:55;9.65;;;4.85;;
24799;SDS011;12897;50.812;4.430;2023-06-19T14:23:24;8.90;;;5.28;;
24799;SDS011;12897;50.812;4.430;2023-06-19T14:25:54;9.13;;;5.92;;
24799;SDS011;12897;50.812;4.430;2023-06-19T14:28:21;12.30;;;5.17;;
24799;SDS011;12897;50.812;4.430;2023-06-19T14:30:51;10.80;;;5.55;;
24799;SDS011;12897;50.812;4.430;2023-06-19T14:33:20;9.33;;;5.30;;
24799;SDS011;12897;50.812;4.430;2023-06-19T14:35:48;6.83;;;4.97;;
24799;SDS011;12897;50.812;4.430;2023-06-19T14:38:17;12.50;;;5.60;;
24799;SDS011;12897;50.812;4.430;2023-06-19T14:40:45;8.60;;;5.33;;
24799;SDS011;12897;50.812;4.430;2023-06-19T14:43:13;9.68;;;5.28;;
24799;SDS011;12897;50.812;4.430;2023-06-19T14:45:43;8.20;;;5.10;;
24799;SDS011;12897;50.812;4.430;2023-06-19T14:48:11;5.97;;;3.95;;
24799;SDS011;12897;50.812;4.430;2023-06-19T14:50:53;7.87;;;3.95;;
24799;SDS011;12897;50.812;4.430;2023-06-19T14:53:10;10.68;;;4.70;;
24799;SDS011;12897;50.812;4.430;2023-06-19T14:55:39;8.35;;;4.80;;
24799;SDS011;12897;50.812;4.430;2023-06-19T14:58:08;6.80;;;4.33;;
24799;SDS011;12897;50.812;4.430;2023-06-19T15:00:36;5.70;;;4.53;;
24799;SDS011;12897;50.812;4.430;2023-06-19T15:03:04;6.17;;;4.80;;
24799;SDS011;12897;50.812;4.430;2023-06-19T15:05:39;8.48;;;5.12;;
24799;SDS011;12897;50.812;4.430;2023-06-19T15:08:02;8.93;;;4.60;;
24799;SDS011;12897;50.812;4.430;2023-06-19T15:10:33;7.60;;;4.65;;
24799;SDS011;12897;50.812;4.430;2023-06-19T15:13:04;9.70;;;4.42;;
24799;SDS011;12897;50.812;4.430;2023-06-19T15:18:22;6.83;;;4.60;;
24799;SDS011;12897;50.812;4.430;2023-06-19T15:20:49;7.22;;;4.33;;
24799;SDS011;12897;50.812;4.430;2023-06-19T15:23:17;6.03;;;4.45;;
24799;SDS011;12897;50.812;4.430;2023-06-19T15:25:45;7.80;;;4.30;;
24799;SDS011;12897;50.812;4.430;2023-06-19T15:30:41;8.43;;;4.85;;
24799;SDS011;12897;50.812;4.430;2023-06-19T15:33:09;10.38;;;4.90;;
24799;SDS011;12897;50.812;4.430;2023-06-19T15:35:38;9.05;;;5.08;;